sensor_id;sensor_type;location;lat;lon;timestamp;P1;durP1;ratioP1;P2;durP2;ratioP2
3465;SDS011;1747;48.884;9.160;2023-01-28T00:01:05;6.43;;;3.53;;
3465;SDS011;1747;48.884;9.160;2023-01-28T00:03:32;5.63;;;3.47;;
3465;SDS011;1747;48.884;9.160;2023-01-28T00:06:02;5.20;;;3.08;;
3465;SDS011;1747;48.884;9.160;2023-01-28T00:08:29;5.32;;;3.22;;
3465;SDS011;1747;48.884;9.160;2023-01-28T00:10:57;5.88;;;3.20;;
3465;SDS011;1747;48.884;9.160;2023-01-28T00:13:27;5.20;;;3.60;;
3465;SDS011;1747;48.884;9.160;2023-01-28T00:15:54;4.93;;;3.17;;
3465;SDS011;1747;48.884;9.160;2023-01-28T00:18:22;5.50;;;3.40;;
3465;SDS011;1747;48.884;9.160;2023-01-28T00:20:54;5.65;;;3.35;;
3465;SDS011;1747;48.884;9.160;2023-01-28T00:23:23;5.80;;;3.50;;
3465;SDS011;1747;48.884;9.160;2023-01-28T00:25:51;6.72;;;3.20;;
3465;SDS011;1747;48.884;9.160;2023-01-28T00:28:18;5.35;;;3.50;;
3465;SDS011;1747;48.884;9.160;2023-01-28T00:30:47;5.22;;;3.10;;
3465;SDS011;1747;48.884;9.160;2023-01-28T00:33:14;5.03;;;3.05;;
3465;SDS011;1747;48.884;9.160;2023-01-28T00:35:40;5.80;;;3.30;;
3465;SDS011;1747;48.884;9.160;2023-01-28T00:38:07;6.18;;;3.20;;
3465;SDS011;1747;48.884;9.160;2023-01-28T00:40:35;5.03;;;3.00;;
3465;SDS011;1747;48.884;9.160;2023-01-28T00:43:02;5.40;;;3.33;;
3465;SDS011;1747;48.884;9.160;2023-01-28T00:45:29;5.45;;;3.13;;
3465;SDS011;1747;48.884;9.160;2023-01-28T00:47:57;4.93;;;2.95;;
3465;SDS011;1747;48.884;9.160;2023-01-28T00:50:23;5.20;;;2.78;;
3465;SDS011;1747;48.884;9.160;2023-01-28T00:52:50;5.05;;;2.70;;
3465;SDS011;1747;48.884;9.160;2023-01-28T00:55:17;4.28;;;2.42;;
3465;SDS011;1747;48.884;9.160;2023-01-28T00:57:45;3.88;;;2.80;;
3465;SDS011;1747;48.884;9.160;2023-01-28T01:00:12;5.95;;;3.03;;
3465;SDS011;1747;48.884;9.160;2023-01-28T01:02:40;3.88;;;2.55;;
3465;SDS011;1747;48.884;9.160;2023-01-28T01:05:08;4.50;;;2.75;;
3465;SDS011;1747;48.884;9.160;2023-01-28T01:07:35;5.30;;;2.60;;
3465;SDS011;1747;48.884;9.160;2023-01-28T01:10:07;4.95;;;2.55;;
3465;SDS011;1747;48.884;9.160;2023-01-28T01:12:34;5.90;;;3.03;;
3465;SDS011;1747;48.884;9.160;2023-01-28T01:15:01;5.38;;;2.90;;
3465;SDS011;1747;48.884;9.160;2023-01-28T01:17:29;5.60;;;2.67;;
3465;SDS011;1747;48.884;9.160;2023-01-28T01:19:55;5.00;;;2.97;;
3465;SDS011;1747;48.884;9.160;2023-01-28T01:22:24;5.20;;;2.53;;
3465;SDS011;1747;48.884;9.160;2023-01-28T01:24:50;3.65;;;2.60;;
3465;SDS011;1747;48.884;9.160;2023-01-28T01:27:17;7.15;;;3.15;;
3465;SDS011;1747;48.884;9.160;2023-01-28T01:29:44;4.90;;;3.13;;
3465;SDS011;1747;48.884;9.160;2023-01-28T01:32:11;3.85;;;2.25;;
3465;SDS011;1747;48.884;9.160;2023-01-28T01:34:37;6.43;;;3.20;;
3465;SDS011;1747;48.884;9.160;2023-01-28T01:37:04;4.95;;;2.58;;
3465;SDS011;1747;48.884;9.160;2023-01-28T01:39:33;5.20;;;2.58;;
3465;SDS011;1747;48.884;9.160;2023-01-28T01:42:00;4.43;;;2.90;;
3465;SDS011;1747;48.884;9.160;2023-01-28T01:44:51;5.75;;;2.85;;
3465;SDS011;1747;48.884;9.160;2023-01-28T01:47:21;4.38;;;2.83;;
3465;SDS011;1747;48.884;9.160;2023-01-28T01:49:52;4.50;;;2.83;;
3465;SDS011;1747;48.884;9.160;2023-01-28T01:52:20;3.67;;;2.30;;
3465;SDS011;1747;48.884;9.160;2023-01-28T01:54:53;4.45;;;2.67;;
3465;SDS011;1747;48.884;9.160;2023-01-28T01:57:23;3.85;;;2.33;;
3465;SDS011;1747;48.884;9.160;2023-01-28T01:59:53;4.75;;;2.70;;
3465;SDS011;1747;48.884;9.160;2023-01-28T02:02:28;5.75;;;2.55;;
3465;SDS011;1747;48.884;9.160;2023-01-28T02:04:56;5.05;;;2.78;;
3465;SDS011;1747;48.884;9.160;2023-01-28T02:07:23;3.92;;;2.47;;
3465;SDS011;1747;48.884;9.160;2023-01-28T02:09:50;4.45;;;2.80;;
3465;SDS011;1747;48.884;9.160;2023-01-28T02:12:19;3.83;;;2.30;;
3465;SDS011;1747;48.884;9.160;2023-01-28T02:14:49;4.22;;;2.70;;
3465;SDS011;1747;48.884;9.160;2023-01-28T02:17:18;5.45;;;2.78;;
3465;SDS011;1747;48.884;9.160;2023-01-28T02:19:47;4.10;;;2.40;;
3465;SDS011;1747;48.884;9.160;2023-01-28T02:22:28;4.57;;;2.70;;
3465;SDS011;1747;48.884;9.160;2023-01-28T02:28:27;3.80;;;2.50;;
3465;SDS011;1747;48.884;9.160;2023-01-28T02:31:00;3.75;;;2.53;;
3465;SDS011;1747;48.884;9.160;2023-01-28T02:33:34;4.05;;;2.75;;
3465;SDS011;1747;48.884;9.160;2023-01-28T02:36:08;4.00;;;2.45;;
3465;SDS011;1747;48.884;9.160;2023-01-28T02:38:44;3.83;;;2.25;;
3465;SDS011;1747;48.884;9.160;2023-01-28T02:41:15;5.57;;;2.70;;
3465;SDS011;1747;48.884;9.160;2023-01-28T02:43:49;5.72;;;3.05;;
3465;SDS011;1747;48.884;9.160;2023-01-28T02:46:18;4.35;;;2.63;;
3465;SDS011;1747;48.884;9.160;2023-01-28T02:49:05;5.03;;;2.70;;
3465;SDS011;1747;48.884;9.160;2023-01-28T02:51:45;5.85;;;3.17;;
3465;SDS011;1747;48.884;9.160;2023-01-28T02:54:36;4.47;;;2.42;;
3465;SDS011;1747;48.884;9.160;2023-01-28T02:57:08;6.40;;;3.15;;
3465;SDS011;1747;48.884;9.160;2023-01-28T02:59:48;3.88;;;2.70;;
3465;SDS011;1747;48.884;9.160;2023-01-28T03:02:20;4.22;;;2.83;;
3465;SDS011;1747;48.884;9.160;2023-01-28T03:04:55;4.60;;;2.95;;
3465;SDS011;1747;48.884;9.160;2023-01-28T03:07:26;4.95;;;2.90;;
3465;SDS011;1747;48.884;9.160;2023-01-28T03:09:57;5.60;;;3.10;;
3465;SDS011;1747;48.884;9.160;2023-01-28T03:12:28;3.65;;;2.58;;
3465;SDS011;1747;48.884;9.160;2023-01-28T03:15:15;5.20;;;3.17;;
3465;SDS011;1747;48.884;9.160;2023-01-28T03:18:03;5.25;;;3.10;;
3465;SDS011;1747;48.884;9.160;2023-01-28T03:20:50;5.68;;;3.40;;
3465;SDS011;1747;48.884;9.160;2023-01-28T03:23:40;6.63;;;3.53;;
3465;SDS011;1747;48.884;9.160;2023-01-28T03:26:30;6.20;;;3.80;;
3465;SDS011;1747;48.884;9.160;2023-01-28T03:29:19;5.75;;;3.65;;
3465;SDS011;1747;48.884;9.160;2023-01-28T03:32:06;5.63;;;3.40;;
3465;SDS011;1747;48.884;9.160;2023-01-28T03:34:50;6.18;;;3.88;;
3465;SDS011;1747;48.884;9.160;2023-01-28T03:37:36;6.22;;;3.55;;
3465;SDS011;1747;48.884;9.160;2023-01-28T03:40:04;6.57;;;3.65;;
3465;SDS011;1747;48.884;9.160;2023-01-28T03:42:33;7.40;;;4.10;;
3465;SDS011;1747;48.884;9.160;2023-01-28T03:45:00;6.57;;;3.78;;
3465;SDS011;1747;48.884;9.160;2023-01-28T03:47:30;6.25;;;3.88;;
3465;SDS011;1747;48.884;9.160;2023-01-28T03:49:58;7.13;;;4.13;;
3465;SDS011;1747;48.884;9.160;2023-01-28T03:52:25;7.25;;;4.00;;
3465;SDS011;1747;48.884;9.160;2023-01-28T03:54:54;6.85;;;3.60;;
3465;SDS011;1747;48.884;9.160;2023-01-28T03:57:22;6.82;;;3.83;;
3465;SDS011;1747;48.884;9.160;2023-01-28T03:59:50;8.48;;;3.88;;
3465;SDS011;1747;48.884;9.160;2023-01-28T04:02:18;7.05;;;4.05;;
3465;SDS011;1747;48.884;9.160;2023-01-28T04:04:47;7.10;;;3.97;;
3465;SDS011;1747;48.884;9.160;2023-01-28T04:07:15;5.68;;;3.47;;
3465;SDS011;1747;48.884;9.160;2023-01-28T04:09:42;7.07;;;4.03;;
3465;SDS011;1747;48.884;9.160;2023-01-28T04:12:09;6.07;;;3.47;;
3465;SDS011;1747;48.884;9.160;2023-01-28T04:14:36;6.85;;;3.63;;
3465;SDS011;1747;48.884;9.160;2023-01-28T04:17:04;7.65;;;4.15;;
3465;SDS011;1747;48.884;9.160;2023-01-28T04:19:31;7.82;;;4.05;;
3465;SDS011;1747;48.884;9.160;2023-01-28T04:22:02;5.63;;;3.05;;
3465;SDS011;1747;48.884;9.160;2023-01-28T04:24:30;9.55;;;3.33;;
3465;SDS011;1747;48.884;9.160;2023-01-28T04:26:57;7.00;;;3.63;;
3465;SDS011;1747;48.884;9.160;2023-01-28T04:29:24;6.85;;;3.70;;
3465;SDS011;1747;48.884;9.160;2023-01-28T04:31:50;6.35;;;3.55;;
3465;SDS011;1747;48.884;9.160;2023-01-28T04:34:17;5.55;;;3.53;;
3465;SDS011;1747;48.884;9.160;2023-01-28T04:36:44;6.20;;;3.75;;
3465;SDS011;1747;48.884;9.160;2023-01-28T04:39:13;7.32;;;3.55;;
3465;SDS011;1747;48.884;9.160;2023-01-28T04:41:40;7.63;;;3.45;;
3465;SDS011;1747;48.884;9.160;2023-01-28T04:44:07;5.90;;;3.60;;
3465;SDS011;1747;48.884;9.160;2023-01-28T04:46:33;6.05;;;3.50;;
3465;SDS011;1747;48.884;9.160;2023-01-28T04:49:00;8.63;;;3.45;;
3465;SDS011;1747;48.884;9.160;2023-01-28T04:51:27;6.70;;;3.83;;
3465;SDS011;1747;48.884;9.160;2023-01-28T04:53:54;6.97;;;3.40;;
3465;SDS011;1747;48.884;9.160;2023-01-28T04:56:22;8.10;;;4.30;;
3465;SDS011;1747;48.884;9.160;2023-01-28T04:58:49;7.07;;;3.95;;
3465;SDS011;1747;48.884;9.160;2023-01-28T05:01:16;5.38;;;2.95;;
3465;SDS011;1747;48.884;9.160;2023-01-28T05:03:42;6.32;;;3.67;;
3465;SDS011;1747;48.884;9.160;2023-01-28T05:06:09;8.40;;;3.88;;
3465;SDS011;1747;48.884;9.160;2023-01-28T05:08:36;6.82;;;4.07;;
3465;SDS011;1747;48.884;9.160;2023-01-28T05:11:03;6.82;;;3.83;;
3465;SDS011;1747;48.884;9.160;2023-01-28T05:13:31;6.18;;;3.28;;
3465;SDS011;1747;48.884;9.160;2023-01-28T05:15:58;7.28;;;3.92;;
3465;SDS011;1747;48.884;9.160;2023-01-28T05:18:25;6.13;;;3.53;;
3465;SDS011;1747;48.884;9.160;2023-01-28T05:20:52;7.75;;;4.25;;
3465;SDS011;1747;48.884;9.160;2023-01-28T05:23:18;6.93;;;3.90;;
3465;SDS011;1747;48.884;9.160;2023-01-28T05:25:45;7.47;;;4.03;;
3465;SDS011;1747;48.884;9.160;2023-01-28T05:28:12;9.07;;;4.43;;
3465;SDS011;1747;48.884;9.160;2023-01-28T05:30:40;7.93;;;4.00;;
3465;SDS011;1747;48.884;9.160;2023-01-28T05:33:07;6.68;;;4.13;;
3465;SDS011;1747;48.884;9.160;2023-01-28T05:35:34;6.82;;;4.20;;
3465;SDS011;1747;48.884;9.160;2023-01-28T05:38:01;8.48;;;3.92;;
3465;SDS011;1747;48.884;9.160;2023-01-28T05:40:28;6.95;;;4.22;;
3465;SDS011;1747;48.884;9.160;2023-01-28T05:42:55;7.45;;;4.32;;
3465;SDS011;1747;48.884;9.160;2023-01-28T05:45:22;6.70;;;3.88;;
3465;SDS011;1747;48.884;9.160;2023-01-28T05:47:50;6.60;;;3.92;;
3465;SDS011;1747;48.884;9.160;2023-01-28T05:50:16;7.45;;;4.05;;
3465;SDS011;1747;48.884;9.160;2023-01-28T05:52:43;8.88;;;4.40;;
3465;SDS011;1747;48.884;9.160;2023-01-28T05:55:10;6.60;;;3.90;;
3465;SDS011;1747;48.884;9.160;2023-01-28T05:57:37;7.68;;;4.80;;
3465;SDS011;1747;48.884;9.160;2023-01-28T06:00:05;7.78;;;4.38;;
3465;SDS011;1747;48.884;9.160;2023-01-28T06:02:33;7.93;;;4.38;;
3465;SDS011;1747;48.884;9.160;2023-01-28T06:05:01;7.57;;;4.53;;
3465;SDS011;1747;48.884;9.160;2023-01-28T06:07:28;9.27;;;4.72;;
3465;SDS011;1747;48.884;9.160;2023-01-28T06:09:55;7.05;;;4.50;;
3465;SDS011;1747;48.884;9.160;2023-01-28T06:12:22;6.50;;;4.32;;
3465;SDS011;1747;48.884;9.160;2023-01-28T06:14:49;7.05;;;4.80;;
3465;SDS011;1747;48.884;9.160;2023-01-28T06:17:15;9.85;;;4.88;;
3465;SDS011;1747;48.884;9.160;2023-01-28T06:19:42;8.45;;;4.75;;
3465;SDS011;1747;48.884;9.160;2023-01-28T06:22:11;9.82;;;5.10;;
3465;SDS011;1747;48.884;9.160;2023-01-28T06:24:38;9.27;;;4.80;;
3465;SDS011;1747;48.884;9.160;2023-01-28T06:27:04;8.18;;;4.82;;
3465;SDS011;1747;48.884;9.160;2023-01-28T06:29:31;7.82;;;4.43;;
3465;SDS011;1747;48.884;9.160;2023-01-28T06:31:59;8.60;;;4.53;;
3465;SDS011;1747;48.884;9.160;2023-01-28T06:34:27;6.82;;;4.50;;
3465;SDS011;1747;48.884;9.160;2023-01-28T06:36:57;10.27;;;4.57;;
3465;SDS011;1747;48.884;9.160;2023-01-28T06:39:28;7.22;;;4.40;;
3465;SDS011;1747;48.884;9.160;2023-01-28T06:41:57;8.80;;;4.80;;
3465;SDS011;1747;48.884;9.160;2023-01-28T06:44:25;9.40;;;4.78;;
3465;SDS011;1747;48.884;9.160;2023-01-28T06:46:51;7.30;;;4.40;;
3465;SDS011;1747;48.884;9.160;2023-01-28T06:49:19;6.65;;;4.20;;
3465;SDS011;1747;48.884;9.160;2023-01-28T06:51:46;8.40;;;4.90;;
3465;SDS011;1747;48.884;9.160;2023-01-28T06:54:14;8.48;;;5.15;;
3465;SDS011;1747;48.884;9.160;2023-01-28T06:56:46;6.38;;;4.10;;
3465;SDS011;1747;48.884;9.160;2023-01-28T06:59:16;6.93;;;4.38;;
3465;SDS011;1747;48.884;9.160;2023-01-28T07:01:42;7.53;;;4.68;;
3465;SDS011;1747;48.884;9.160;2023-01-28T07:04:10;6.72;;;4.38;;
3465;SDS011;1747;48.884;9.160;2023-01-28T07:06:40;7.63;;;4.95;;
3465;SDS011;1747;48.884;9.160;2023-01-28T07:09:07;8.57;;;4.90;;
3465;SDS011;1747;48.884;9.160;2023-01-28T07:11:34;9.70;;;4.82;;
3465;SDS011;1747;48.884;9.160;2023-01-28T07:14:03;9.30;;;5.15;;
3465;SDS011;1747;48.884;9.160;2023-01-28T07:16:34;8.95;;;4.97;;
3465;SDS011;1747;48.884;9.160;2023-01-28T07:19:01;10.80;;;5.53;;
3465;SDS011;1747;48.884;9.160;2023-01-28T07:21:28;7.03;;;4.68;;
3465;SDS011;1747;48.884;9.160;2023-01-28T07:23:55;10.10;;;4.57;;
3465;SDS011;1747;48.884;9.160;2023-01-28T07:26:22;12.05;;;5.15;;
3465;SDS011;1747;48.884;9.160;2023-01-28T07:28:49;9.07;;;5.30;;
3465;SDS011;1747;48.884;9.160;2023-01-28T07:31:17;9.38;;;4.80;;
3465;SDS011;1747;48.884;9.160;2023-01-28T07:33:44;8.50;;;5.22;;
3465;SDS011;1747;48.884;9.160;2023-01-28T07:36:11;7.47;;;4.75;;
3465;SDS011;1747;48.884;9.160;2023-01-28T07:38:37;10.20;;;5.72;;
3465;SDS011;1747;48.884;9.160;2023-01-28T07:41:04;9.05;;;5.18;;
3465;SDS011;1747;48.884;9.160;2023-01-28T07:43:31;8.43;;;4.93;;
3465;SDS011;1747;48.884;9.160;2023-01-28T07:45:58;8.95;;;5.15;;
3465;SDS011;1747;48.884;9.160;2023-01-28T07:48:27;13.10;;;5.40;;
3465;SDS011;1747;48.884;9.160;2023-01-28T07:50:57;9.10;;;5.35;;
3465;SDS011;1747;48.884;9.160;2023-01-28T07:53:24;10.02;;;5.35;;
3465;SDS011;1747;48.884;9.160;2023-01-28T07:55:51;11.73;;;6.10;;
3465;SDS011;1747;48.884;9.160;2023-01-28T07:58:23;11.35;;;5.88;;
3465;SDS011;1747;48.884;9.160;2023-01-28T08:00:50;10.43;;;6.87;;
3465;SDS011;1747;48.884;9.160;2023-01-28T08:03:16;11.90;;;6.53;;
3465;SDS011;1747;48.884;9.160;2023-01-28T08:05:45;10.00;;;6.22;;
3465;SDS011;1747;48.884;9.160;2023-01-28T08:08:13;9.57;;;5.60;;
3465;SDS011;1747;48.884;9.160;2023-01-28T08:10:41;9.70;;;6.32;;
3465;SDS011;1747;48.884;9.160;2023-01-28T08:13:09;7.95;;;5.13;;
3465;SDS011;1747;48.884;9.160;2023-01-28T08:15:36;8.43;;;4.57;;
3465;SDS011;1747;48.884;9.160;2023-01-28T08:18:04;9.63;;;5.53;;
3465;SDS011;1747;48.884;9.160;2023-01-28T08:20:31;9.98;;;5.75;;
3465;SDS011;1747;48.884;9.160;2023-01-28T08:23:07;9.65;;;6.07;;
3465;SDS011;1747;48.884;9.160;2023-01-28T08:25:36;11.20;;;5.70;;
3465;SDS011;1747;48.884;9.160;2023-01-28T08:28:04;9.15;;;5.40;;
3465;SDS011;1747;48.884;9.160;2023-01-28T08:30:31;12.07;;;5.55;;
3465;SDS011;1747;48.884;9.160;2023-01-28T08:32:59;10.35;;;5.95;;
3465;SDS011;1747;48.884;9.160;2023-01-28T08:35:26;9.07;;;5.68;;
3465;SDS011;1747;48.884;9.160;2023-01-28T08:37:53;9.60;;;5.90;;
3465;SDS011;1747;48.884;9.160;2023-01-28T08:40:22;11.02;;;6.00;;
3465;SDS011;1747;48.884;9.160;2023-01-28T08:42:49;11.38;;;6.78;;
3465;SDS011;1747;48.884;9.160;2023-01-28T08:45:18;8.68;;;5.38;;
3465;SDS011;1747;48.884;9.160;2023-01-28T08:47:46;11.80;;;6.20;;
3465;SDS011;1747;48.884;9.160;2023-01-28T08:50:14;11.18;;;6.18;;
3465;SDS011;1747;48.884;9.160;2023-01-28T08:52:41;11.85;;;6.47;;
3465;SDS011;1747;48.884;9.160;2023-01-28T08:55:09;13.30;;;6.20;;
3465;SDS011;1747;48.884;9.160;2023-01-28T08:57:38;10.55;;;7.65;;
3465;SDS011;1747;48.884;9.160;2023-01-28T09:00:05;10.13;;;6.72;;
3465;SDS011;1747;48.884;9.160;2023-01-28T09:02:34;11.90;;;6.30;;
3465;SDS011;1747;48.884;9.160;2023-01-28T09:05:01;9.35;;;6.03;;
3465;SDS011;1747;48.884;9.160;2023-01-28T09:07:29;11.15;;;6.18;;
3465;SDS011;1747;48.884;9.160;2023-01-28T09:09:56;8.80;;;5.78;;
3465;SDS011;1747;48.884;9.160;2023-01-28T09:12:23;11.93;;;6.32;;
3465;SDS011;1747;48.884;9.160;2023-01-28T09:14:51;10.35;;;6.60;;
3465;SDS011;1747;48.884;9.160;2023-01-28T09:17:18;11.05;;;6.63;;
3465;SDS011;1747;48.884;9.160;2023-01-28T09:19:45;11.98;;;6.50;;
3465;SDS011;1747;48.884;9.160;2023-01-28T09:22:12;10.82;;;6.60;;
3465;SDS011;1747;48.884;9.160;2023-01-28T09:24:39;14.18;;;6.85;;
3465;SDS011;1747;48.884;9.160;2023-01-28T09:27:05;11.20;;;6.47;;
3465;SDS011;1747;48.884;9.160;2023-01-28T09:29:32;12.25;;;7.32;;
3465;SDS011;1747;48.884;9.160;2023-01-28T09:32:01;12.63;;;7.18;;
3465;SDS011;1747;48.884;9.160;2023-01-28T09:34:28;12.15;;;6.35;;
3465;SDS011;1747;48.884;9.160;2023-01-28T09:36:54;13.35;;;7.10;;
3465;SDS011;1747;48.884;9.160;2023-01-28T09:39:21;13.65;;;7.55;;
3465;SDS011;1747;48.884;9.160;2023-01-28T09:41:51;12.45;;;7.32;;
3465;SDS011;1747;48.884;9.160;2023-01-28T09:44:31;15.50;;;7.18;;
3465;SDS011;1747;48.884;9.160;2023-01-28T09:47:17;12.77;;;7.38;;
3465;SDS011;1747;48.884;9.160;2023-01-28T09:49:49;17.05;;;7.75;;
3465;SDS011;1747;48.884;9.160;2023-01-28T09:52:21;13.77;;;7.55;;
3465;SDS011;1747;48.884;9.160;2023-01-28T09:54:51;14.15;;;7.82;;
3465;SDS011;1747;48.884;9.160;2023-01-28T09:57:21;15.00;;;7.97;;
3465;SDS011;1747;48.884;9.160;2023-01-28T09:59:50;12.82;;;7.38;;
3465;SDS011;1747;48.884;9.160;2023-01-28T10:02:24;13.80;;;8.25;;
3465;SDS011;1747;48.884;9.160;2023-01-28T10:05:06;15.38;;;7.40;;
3465;SDS011;1747;48.884;9.160;2023-01-28T10:07:44;15.00;;;8.20;;
3465;SDS011;1747;48.884;9.160;2023-01-28T10:10:19;12.85;;;7.47;;
3465;SDS011;1747;48.884;9.160;2023-01-28T10:12:57;14.85;;;7.78;;
3465;SDS011;1747;48.884;9.160;2023-01-28T10:15:46;14.70;;;8.05;;
3465;SDS011;1747;48.884;9.160;2023-01-28T10:18:35;14.18;;;7.35;;
3465;SDS011;1747;48.884;9.160;2023-01-28T10:21:07;11.93;;;6.88;;
3465;SDS011;1747;48.884;9.160;2023-01-28T10:23:44;12.40;;;7.13;;
3465;SDS011;1747;48.884;9.160;2023-01-28T10:26:19;12.50;;;7.13;;
3465;SDS011;1747;48.884;9.160;2023-01-28T10:28:51;14.98;;;7.78;;
3465;SDS011;1747;48.884;9.160;2023-01-28T10:31:21;14.43;;;7.60;;
3465;SDS011;1747;48.884;9.160;2023-01-28T10:33:50;14.77;;;8.30;;
3465;SDS011;1747;48.884;9.160;2023-01-28T10:36:17;15.68;;;8.20;;
3465;SDS011;1747;48.884;9.160;2023-01-28T10:38:44;14.05;;;7.65;;
3465;SDS011;1747;48.884;9.160;2023-01-28T10:41:12;14.07;;;7.68;;
3465;SDS011;1747;48.884;9.160;2023-01-28T10:43:46;14.60;;;7.68;;
3465;SDS011;1747;48.884;9.160;2023-01-28T10:46:17;15.27;;;7.70;;
3465;SDS011;1747;48.884;9.160;2023-01-28T10:48:47;12.43;;;6.97;;
3465;SDS011;1747;48.884;9.160;2023-01-28T10:51:28;15.60;;;7.75;;
3465;SDS011;1747;48.884;9.160;2023-01-28T10:53:57;15.73;;;7.90;;
3465;SDS011;1747;48.884;9.160;2023-01-28T10:56:24;15.50;;;7.40;;
3465;SDS011;1747;48.884;9.160;2023-01-28T10:58:56;12.40;;;7.40;;
3465;SDS011;1747;48.884;9.160;2023-01-28T11:01:37;14.35;;;7.80;;
3465;SDS011;1747;48.884;9.160;2023-01-28T11:04:13;15.73;;;8.15;;
3465;SDS011;1747;48.884;9.160;2023-01-28T11:06:50;14.10;;;7.50;;
3465;SDS011;1747;48.884;9.160;2023-01-28T11:09:19;13.63;;;7.65;;
3465;SDS011;1747;48.884;9.160;2023-01-28T11:11:47;12.10;;;6.90;;
3465;SDS011;1747;48.884;9.160;2023-01-28T11:14:18;12.32;;;7.55;;
3465;SDS011;1747;48.884;9.160;2023-01-28T11:16:46;13.48;;;6.88;;
3465;SDS011;1747;48.884;9.160;2023-01-28T11:19:16;12.20;;;7.05;;
3465;SDS011;1747;48.884;9.160;2023-01-28T11:21:47;15.02;;;8.43;;
3465;SDS011;1747;48.884;9.160;2023-01-28T11:24:17;18.95;;;10.55;;
3465;SDS011;1747;48.884;9.160;2023-01-28T11:26:48;12.80;;;7.65;;
3465;SDS011;1747;48.884;9.160;2023-01-28T11:29:20;15.05;;;8.27;;
3465;SDS011;1747;48.884;9.160;2023-01-28T11:31:50;17.90;;;8.45;;
3465;SDS011;1747;48.884;9.160;2023-01-28T11:34:18;15.70;;;8.35;;
3465;SDS011;1747;48.884;9.160;2023-01-28T11:36:49;15.00;;;7.95;;
3465;SDS011;1747;48.884;9.160;2023-01-28T11:39:19;14.70;;;8.18;;
3465;SDS011;1747;48.884;9.160;2023-01-28T11:41:51;14.48;;;8.43;;
3465;SDS011;1747;48.884;9.160;2023-01-28T11:44:19;12.40;;;6.85;;
3465;SDS011;1747;48.884;9.160;2023-01-28T11:46:52;13.60;;;7.78;;
3465;SDS011;1747;48.884;9.160;2023-01-28T11:49:40;13.20;;;7.50;;
3465;SDS011;1747;48.884;9.160;2023-01-28T11:52:20;17.17;;;8.07;;
3465;SDS011;1747;48.884;9.160;2023-01-28T11:54:55;14.55;;;7.93;;
3465;SDS011;1747;48.884;9.160;2023-01-28T11:57:32;14.55;;;8.18;;
3465;SDS011;1747;48.884;9.160;2023-01-28T12:00:19;13.20;;;7.38;;
3465;SDS011;1747;48.884;9.160;2023-01-28T12:02:58;13.68;;;7.38;;
3465;SDS011;1747;48.884;9.160;2023-01-28T12:05:48;14.05;;;7.57;;
3465;SDS011;1747;48.884;9.160;2023-01-28T12:08:19;13.13;;;7.00;;
3465;SDS011;1747;48.884;9.160;2023-01-28T12:10:53;16.35;;;7.32;;
3465;SDS011;1747;48.884;9.160;2023-01-28T12:13:38;14.90;;;6.57;;
3465;SDS011;1747;48.884;9.160;2023-01-28T12:22:10;10.23;;;5.97;;
3465;SDS011;1747;48.884;9.160;2023-01-28T12:24:52;11.15;;;5.68;;
3465;SDS011;1747;48.884;9.160;2023-01-28T12:27:32;9.32;;;5.18;;
3465;SDS011;1747;48.884;9.160;2023-01-28T12:30:10;11.20;;;5.90;;
3465;SDS011;1747;48.884;9.160;2023-01-28T12:32:49;9.25;;;5.22;;
3465;SDS011;1747;48.884;9.160;2023-01-28T12:35:34;10.10;;;5.60;;
3465;SDS011;1747;48.884;9.160;2023-01-28T12:38:17;10.70;;;5.53;;
3465;SDS011;1747;48.884;9.160;2023-01-28T12:40:56;8.63;;;5.15;;
3465;SDS011;1747;48.884;9.160;2023-01-28T12:43:33;9.82;;;6.57;;
3465;SDS011;1747;48.884;9.160;2023-01-28T12:46:20;10.70;;;5.93;;
3465;SDS011;1747;48.884;9.160;2023-01-28T12:48:53;9.88;;;5.70;;
3465;SDS011;1747;48.884;9.160;2023-01-28T12:51:26;8.35;;;5.53;;
3465;SDS011;1747;48.884;9.160;2023-01-28T12:53:59;9.90;;;5.85;;
3465;SDS011;1747;48.884;9.160;2023-01-28T12:56:30;10.88;;;5.88;;
3465;SDS011;1747;48.884;9.160;2023-01-28T12:59:01;10.23;;;5.38;;
3465;SDS011;1747;48.884;9.160;2023-01-28T13:01:34;9.77;;;5.95;;
3465;SDS011;1747;48.884;9.160;2023-01-28T13:04:08;8.70;;;5.18;;
3465;SDS011;1747;48.884;9.160;2023-01-28T13:06:39;11.68;;;5.90;;
3465;SDS011;1747;48.884;9.160;2023-01-28T13:09:12;10.88;;;5.85;;
3465;SDS011;1747;48.884;9.160;2023-01-28T13:11:42;11.35;;;5.85;;
3465;SDS011;1747;48.884;9.160;2023-01-28T13:14:10;10.90;;;6.03;;
3465;SDS011;1747;48.884;9.160;2023-01-28T13:16:38;9.15;;;5.40;;
3465;SDS011;1747;48.884;9.160;2023-01-28T13:19:06;7.95;;;4.82;;
3465;SDS011;1747;48.884;9.160;2023-01-28T13:21:46;9.82;;;5.53;;
3465;SDS011;1747;48.884;9.160;2023-01-28T13:24:22;9.25;;;5.60;;
3465;SDS011;1747;48.884;9.160;2023-01-28T13:26:56;9.38;;;5.07;;
3465;SDS011;1747;48.884;9.160;2023-01-28T13:29:28;8.73;;;5.22;;
3465;SDS011;1747;48.884;9.160;2023-01-28T13:31:57;8.80;;;5.18;;
3465;SDS011;1747;48.884;9.160;2023-01-28T13:34:30;10.32;;;6.07;;
3465;SDS011;1747;48.884;9.160;2023-01-28T13:37:01;9.52;;;5.38;;
3465;SDS011;1747;48.884;9.160;2023-01-28T13:39:34;8.60;;;5.07;;
3465;SDS011;1747;48.884;9.160;2023-01-28T13:42:10;10.00;;;5.47;;
3465;SDS011;1747;48.884;9.160;2023-01-28T13:44:47;9.32;;;5.30;;
3465;SDS011;1747;48.884;9.160;2023-01-28T13:47:17;8.70;;;5.22;;
3465;SDS011;1747;48.884;9.160;2023-01-28T13:49:48;8.90;;;5.38;;
3465;SDS011;1747;48.884;9.160;2023-01-28T13:52:22;7.25;;;4.13;;
3465;SDS011;1747;48.884;9.160;2023-01-28T13:54:55;9.02;;;4.75;;
3465;SDS011;1747;48.884;9.160;2023-01-28T13:57:45;8.98;;;4.75;;
3465;SDS011;1747;48.884;9.160;2023-01-28T14:00:38;8.25;;;5.63;;
3465;SDS011;1747;48.884;9.160;2023-01-28T14:03:30;11.68;;;5.45;;
3465;SDS011;1747;48.884;9.160;2023-01-28T14:06:22;10.52;;;5.53;;
3465;SDS011;1747;48.884;9.160;2023-01-28T14:09:20;8.50;;;5.28;;
3465;SDS011;1747;48.884;9.160;2023-01-28T14:12:16;9.48;;;4.88;;
3465;SDS011;1747;48.884;9.160;2023-01-28T14:15:18;8.15;;;5.40;;
3465;SDS011;1747;48.884;9.160;2023-01-28T14:18:13;7.88;;;4.65;;
3465;SDS011;1747;48.884;9.160;2023-01-28T14:20:45;8.60;;;4.93;;
3465;SDS011;1747;48.884;9.160;2023-01-28T14:23:13;9.63;;;4.68;;
3465;SDS011;1747;48.884;9.160;2023-01-28T14:25:47;7.82;;;4.88;;
3465;SDS011;1747;48.884;9.160;2023-01-28T14:28:28;9.63;;;5.47;;
3465;SDS011;1747;48.884;9.160;2023-01-28T14:31:02;7.50;;;4.57;;
3465;SDS011;1747;48.884;9.160;2023-01-28T14:33:36;8.65;;;4.22;;
3465;SDS011;1747;48.884;9.160;2023-01-28T14:36:04;7.60;;;4.47;;
3465;SDS011;1747;48.884;9.160;2023-01-28T14:38:32;8.15;;;4.88;;
3465;SDS011;1747;48.884;9.160;2023-01-28T14:41:04;9.30;;;4.85;;
3465;SDS011;1747;48.884;9.160;2023-01-28T14:43:33;6.55;;;4.10;;
3465;SDS011;1747;48.884;9.160;2023-01-28T14:46:10;11.07;;;4.93;;
3465;SDS011;1747;48.884;9.160;2023-01-28T14:48:46;7.25;;;4.38;;
3465;SDS011;1747;48.884;9.160;2023-01-28T14:51:34;8.75;;;4.30;;
3465;SDS011;1747;48.884;9.160;2023-01-28T14:54:25;6.80;;;4.07;;
3465;SDS011;1747;48.884;9.160;2023-01-28T14:57:14;5.55;;;3.92;;
3465;SDS011;1747;48.884;9.160;2023-01-28T14:59:55;7.00;;;4.28;;
3465;SDS011;1747;48.884;9.160;2023-01-28T15:02:24;7.10;;;4.22;;
3465;SDS011;1747;48.884;9.160;2023-01-28T15:04:52;8.55;;;4.28;;
3465;SDS011;1747;48.884;9.160;2023-01-28T15:07:20;6.95;;;4.28;;
3465;SDS011;1747;48.884;9.160;2023-01-28T15:09:58;7.25;;;4.20;;
3465;SDS011;1747;48.884;9.160;2023-01-28T15:12:25;7.35;;;4.55;;
3465;SDS011;1747;48.884;9.160;2023-01-28T15:14:54;6.07;;;3.97;;
3465;SDS011;1747;48.884;9.160;2023-01-28T15:17:22;8.05;;;5.00;;
3465;SDS011;1747;48.884;9.160;2023-01-28T15:19:51;6.85;;;4.40;;
3465;SDS011;1747;48.884;9.160;2023-01-28T15:22:21;8.10;;;5.10;;
3465;SDS011;1747;48.884;9.160;2023-01-28T15:24:51;7.05;;;4.85;;
3465;SDS011;1747;48.884;9.160;2023-01-28T15:27:20;5.97;;;4.25;;
3465;SDS011;1747;48.884;9.160;2023-01-28T15:29:52;9.23;;;4.88;;
3465;SDS011;1747;48.884;9.160;2023-01-28T15:32:22;6.68;;;5.25;;
3465;SDS011;1747;48.884;9.160;2023-01-28T15:34:51;7.93;;;4.78;;
3465;SDS011;1747;48.884;9.160;2023-01-28T15:37:18;7.50;;;5.00;;
3465;SDS011;1747;48.884;9.160;2023-01-28T15:39:45;5.82;;;3.75;;
3465;SDS011;1747;48.884;9.160;2023-01-28T15:42:15;7.97;;;3.83;;
3465;SDS011;1747;48.884;9.160;2023-01-28T15:44:46;5.38;;;3.58;;